Aliki Perrotis — 3FZY6 — position and weather

sailwx.info

Track history (hours):
 
Tides and Currents Weather Stations Pressure Air Temp Water Temp Dewpoint Dewpoint Depression Visibility Wind Speed Wind Dir Waves Ship Positions

Aliki Perrotis

Last reported at 2018-Feb-12 13:47 UTC. Time now 2018-Feb-18 05:24 UTC.
Position N 35°59' W 005°33'.

Length 198 m; draft 6.9 m.

Type: Cargo ship. MMSI: 354720000.

Date/timePositionNaut miles runAvg speedWind from/ knotsBaromVisibWave heightAir tempDewpointWater temp
2018-Feb-12 13:47N 35°59' W 005°33'311.6
2018-Feb-12 13:30N 35°60' W 005°29'510.3
2018-Feb-12 13:00N 36°03' W 005°24'5 9.6
2018-Feb-12 12:31N 36°08' W 005°22'0 0.4
2018-Feb-12 12:00N 36°08' W 005°22'0 0.0
2018-Feb-12 11:30N 36°08' W 005°22'0 0.0
2018-Feb-12 11:00N 36°08' W 005°22'0 0.0
2018-Feb-12 10:30N 36°08' W 005°22'0 0.0
2018-Feb-12 10:00N 36°08' W 005°22'0 0.0
2018-Feb-12 09:30N 36°08' W 005°22'0 0.0
2018-Feb-12 09:00N 36°08' W 005°22'0 0.1
2018-Feb-12 08:30N 36°08' W 005°22'0 0.2
2018-Feb-12 08:00N 36°08' W 005°22'0 0.0
2018-Feb-12 07:15N 36°08' W 005°22'0 0.0
2018-Feb-12 07:00N 36°08' W 005°22'0 0.1
2018-Feb-12 06:15N 36°08' W 005°22'0 0.2
2018-Feb-12 06:00N 36°08' W 005°22'0 0.1
2018-Feb-12 05:30N 36°08' W 005°22'0 0.2
2018-Feb-12 05:00N 36°08' W 005°22'0 0.1
2018-Feb-12 04:30N 36°08' W 005°22'0 0.0
2018-Feb-12 04:00N 36°08' W 005°22'0 0.0
2018-Feb-12 03:26N 36°08' W 005°22'0 0.1
2018-Feb-12 03:00N 36°08' W 005°22'0 0.0
2018-Feb-12 02:30N 36°08' W 005°22'0 0.0
2018-Feb-12 02:00N 36°08' W 005°22'0 0.0
2018-Feb-12 01:30N 36°08' W 005°22'0 0.0
2018-Feb-12 01:00N 36°08' W 005°22'0 0.0
2018-Feb-12 00:29N 36°08' W 005°22'0 0.0
2018-Feb-12 00:00N 36°08' W 005°22'1 1.4
2018-Feb-11 23:30N 36°07' W 005°22'3 5.4
2018-Feb-11 23:00N 36°05' W 005°20'3 5.3
2018-Feb-11 22:31N 36°05' W 005°17'1 1.1
2018-Feb-11 22:00N 36°06' W 005°17'1 2.3
2018-Feb-11 21:30N 36°06' W 005°15'  
2018-Feb-05 04:32N 36°53' E 006°54'0 0.1
2018-Feb-05 04:29N 36°53' E 006°54'  
Track history (hours):
 
Tides and Currents Weather Stations Pressure Air Temp Water Temp Dewpoint Dewpoint Depression Visibility Wind Speed Wind Dir Waves Ship Positions

Aliki Perrotis

Last reported at 2018-Feb-12 13:47 UTC. Time now 2018-Feb-18 05:24 UTC.
Position N 35°59' W 005°33'.

Length 198 m; draft 6.9 m.

Type: Cargo ship. MMSI: 354720000.

Date/timePositionNaut miles runAvg speedWind from/ knotsBaromVisibWave heightAir tempDewpointWater temp
2018-Feb-12 13:47N 35°59' W 005°33'311.6
2018-Feb-12 13:30N 35°60' W 005°29'510.3
2018-Feb-12 13:00N 36°03' W 005°24'5 9.6
2018-Feb-12 12:31N 36°08' W 005°22'0 0.4
2018-Feb-12 12:00N 36°08' W 005°22'0 0.0
2018-Feb-12 11:30N 36°08' W 005°22'0 0.0
2018-Feb-12 11:00N 36°08' W 005°22'0 0.0
2018-Feb-12 10:30N 36°08' W 005°22'0 0.0
2018-Feb-12 10:00N 36°08' W 005°22'0 0.0
2018-Feb-12 09:30N 36°08' W 005°22'0 0.0
2018-Feb-12 09:00N 36°08' W 005°22'0 0.1
2018-Feb-12 08:30N 36°08' W 005°22'0 0.2
2018-Feb-12 08:00N 36°08' W 005°22'0 0.0
2018-Feb-12 07:15N 36°08' W 005°22'0 0.0
2018-Feb-12 07:00N 36°08' W 005°22'0 0.1
2018-Feb-12 06:15N 36°08' W 005°22'0 0.2
2018-Feb-12 06:00N 36°08' W 005°22'0 0.1
2018-Feb-12 05:30N 36°08' W 005°22'0 0.2
2018-Feb-12 05:00N 36°08' W 005°22'0 0.1
2018-Feb-12 04:30N 36°08' W 005°22'0 0.0
2018-Feb-12 04:00N 36°08' W 005°22'0 0.0
2018-Feb-12 03:26N 36°08' W 005°22'0 0.1
2018-Feb-12 03:00N 36°08' W 005°22'0 0.0
2018-Feb-12 02:30N 36°08' W 005°22'0 0.0
2018-Feb-12 02:00N 36°08' W 005°22'0 0.0
2018-Feb-12 01:30N 36°08' W 005°22'0 0.0
2018-Feb-12 01:00N 36°08' W 005°22'0 0.0
2018-Feb-12 00:29N 36°08' W 005°22'0 0.0
2018-Feb-12 00:00N 36°08' W 005°22'1 1.4
2018-Feb-11 23:30N 36°07' W 005°22'3 5.4
2018-Feb-11 23:00N 36°05' W 005°20'3 5.3
2018-Feb-11 22:31N 36°05' W 005°17'1 1.1
2018-Feb-11 22:00N 36°06' W 005°17'1 2.3
2018-Feb-11 21:30N 36°06' W 005°15'  
2018-Feb-05 04:32N 36°53' E 006°54'0 0.1
2018-Feb-05 04:29N 36°53' E 006°54'  

Dump ship's entire track history